Time;durP1;ratioP1;P1;durP2;ratioP2;P2;SDS_P1;SDS_P2;PMS_P1;PMS_P2;Temp;Humidity;BMP_temperature;BMP_pressure;BME280_temperature;BME280_humidity;BME280_pressure;Samples;Min_cycle;Max_cycle;Signal;HPM_P1;HPM_P2
2022/10/16 00:02:15;;;;;;;;;;;;;;;15.77;71.18;100440.38;5069494;28;19916;-33
2022/10/16 00:04:40;;;;;;;;;;;;;;;15.76;71.54;100439.53;5052691;28;19970;-33
2022/10/16 00:07:05;;;;;;;;;;;;;;;15.78;71.26;100445.66;5062297;28;19909;-33
2022/10/16 00:09:31;;;;;;;;;;;;;;;15.80;71.04;100442.09;5067159;28;19998;-33
2022/10/16 00:11:56;;;;;;;;;;;;;;;15.82;70.77;100450.88;5070933;28;20010;-33
2022/10/16 00:14:21;;;;;;;;;;;;;;;15.82;70.85;100451.75;5069985;28;19916;-33
2022/10/16 00:16:46;;;;;;;;;;;;;;;15.84;70.84;100457.03;5062519;28;19912;-33
2022/10/16 00:19:14;;;;;;;;;;;;;;;15.85;70.54;100461.41;5069493;28;20041;-33
2022/10/16 00:21:40;;;;;;;;;;;;;;;15.87;70.79;100463.09;5071094;28;19913;-33
2022/10/16 00:24:06;;;;;;;;;;;;;;;15.87;70.58;100459.56;5062185;28;19916;-33
2022/10/16 00:26:32;;;;;;;;;;;;;;;15.87;70.72;100470.22;5066419;28;19912;-33
2022/10/16 00:28:57;;;;;;;;;;;;;;;15.88;70.66;100479.91;5069511;28;19919;-33
2022/10/16 00:31:23;;;;;;;;;;;;;;;15.87;70.65;100481.69;5057425;28;19912;-33
2022/10/16 00:33:49;;;;;;;;;;;;;;;15.87;70.45;100478.19;5052135;28;20446;-33
2022/10/16 00:36:15;;;;;;;;;;;;;;;15.87;70.34;100471.06;5029250;28;19908;-33
2022/10/16 00:38:40;;;;;;;;;;;;;;;15.89;70.63;100471.00;5069406;28;19967;-33
2022/10/16 00:41:06;;;;;;;;;;;;;;;15.89;70.84;100471.91;5070876;28;19947;-33
2022/10/16 00:43:39;;;;;;;;;;;;;;;15.89;70.83;100463.91;5071244;28;20685;-33
2022/10/16 00:46:08;;;;;;;;;;;;;;;15.89;70.99;100465.69;5052002;28;19916;-33
2022/10/16 00:48:33;;;;;;;;;;;;;;;15.88;70.72;100471.94;5052803;28;19912;-33
2022/10/16 00:50:58;;;;;;;;;;;;;;;15.87;70.61;100464.91;5071182;28;20002;-33
2022/10/16 00:53:24;;;;;;;;;;;;;;;15.86;70.31;100464.03;5049280;28;19955;-33
2022/10/16 00:55:49;;;;;;;;;;;;;;;15.85;70.12;100466.72;5049097;28;20368;-33
2022/10/16 00:58:14;;;;;;;;;;;;;;;15.84;69.79;100459.69;5061382;28;20011;-33
2022/10/16 01:00:39;;;;;;;;;;;;;;;15.83;69.72;100458.81;5063990;28;20020;-33
2022/10/16 01:03:21;;;;;;;;;;;;;;;15.82;69.59;100464.16;5065437;28;20007;-33
2022/10/16 01:05:51;;;;;;;;;;;;;;;15.81;69.50;100470.41;5057996;28;19925;-33
2022/10/16 01:08:22;;;;;;;;;;;;;;;15.78;69.43;100469.59;5051566;28;19912;-33
2022/10/16 01:10:50;;;;;;;;;;;;;;;15.77;69.25;100473.19;5052860;28;19912;-33
2022/10/16 01:13:18;;;;;;;;;;;;;;;15.76;69.07;100478.53;5064815;28;19923;-33
2022/10/16 01:15:52;;;;;;;;;;;;;;;15.75;69.13;100475.03;5046457;28;19920;-33
2022/10/16 01:18:23;;;;;;;;;;;;;;;15.74;69.13;100470.63;5035783;28;20141;-33
2022/10/16 01:20:54;;;;;;;;;;;;;;;15.72;69.16;100471.59;5041126;28;19916;-33
2022/10/16 01:23:19;;;;;;;;;;;;;;;15.71;69.11;100486.66;5046081;28;19984;-33
2022/10/16 01:26:00;;;;;;;;;;;;;;;15.69;68.97;100488.53;5066693;28;20450;-33
2022/10/16 01:28:28;;;;;;;;;;;;;;;15.68;68.78;100488.56;5067207;28;20207;-33
2022/10/16 01:30:53;;;;;;;;;;;;;;;15.67;69.20;100502.78;5037198;28;19908;-33
2022/10/16 01:33:20;;;;;;;;;;;;;;;15.65;69.19;100508.16;5042516;28;20294;-33
2022/10/16 01:35:46;;;;;;;;;;;;;;;15.62;69.28;100509.13;5046405;28;19920;-33
2022/10/16 01:38:31;;;;;;;;;;;;;;;15.58;69.18;100507.50;5051247;28;19920;-33
2022/10/16 01:40:58;;;;;;;;;;;;;;;15.56;69.32;100513.75;5061889;28;20014;-33
2022/10/16 01:43:27;;;;;;;;;;;;;;;15.55;69.61;100522.66;5050887;28;19963;-33
2022/10/16 01:45:52;;;;;;;;;;;;;;;15.52;69.43;100519.19;5045038;28;19965;-33
2022/10/16 01:48:18;;;;;;;;;;;;;;;15.50;69.37;100510.38;5051654;28;20434;-33
2022/10/16 01:50:44;;;;;;;;;;;;;;;15.48;69.08;100506.91;5069542;28;20362;-33
2022/10/16 01:53:12;;;;;;;;;;;;;;;15.47;69.21;100499.84;5068659;28;19944;-33
2022/10/16 01:55:41;;;;;;;;;;;;;;;15.45;69.07;100490.19;5047323;28;19938;-33
2022/10/16 01:58:07;;;;;;;;;;;;;;;15.43;68.88;100492.91;5068105;28;19978;-33
2022/10/16 02:00:32;;;;;;;;;;;;;;;15.39;68.91;100485.94;5069267;28;19920;-33
2022/10/16 02:02:57;;;;;;;;;;;;;;;15.38;68.92;100484.22;5066481;28;20314;-33
2022/10/16 02:05:48;;;;;;;;;;;;;;;15.36;68.80;100481.63;5052946;28;20299;-33
2022/10/16 02:08:14;;;;;;;;;;;;;;;15.34;68.96;100485.25;5067788;28;20337;-33
2022/10/16 02:10:39;;;;;;;;;;;;;;;15.31;68.91;100482.69;5052260;28;20368;-33
2022/10/16 02:13:06;;;;;;;;;;;;;;;15.29;68.98;100503.09;5072638;28;19912;-33
2022/10/16 02:15:32;;;;;;;;;;;;;;;15.27;69.44;100503.13;5053616;28;19919;-33
2022/10/16 02:17:57;;;;;;;;;;;;;;;15.24;69.73;100498.81;5057405;28;20071;-33
2022/10/16 02:20:25;;;;;;;;;;;;;;;15.23;70.03;100510.34;5074426;28;19908;-33
2022/10/16 02:22:50;;;;;;;;;;;;;;;15.22;70.15;100510.41;5073443;28;20444;-33
2022/10/16 02:25:25;;;;;;;;;;;;;;;15.19;70.47;100506.06;5070229;28;19924;-33
2022/10/16 02:27:55;;;;;;;;;;;;;;;15.18;70.70;100509.63;5049163;28;19958;-33
2022/10/16 02:30:38;;;;;;;;;;;;;;;15.16;71.31;100518.53;5054055;28;19947;-33
2022/10/16 02:33:04;;;;;;;;;;;;;;;15.15;71.43;100520.34;5049687;28;19912;-33
2022/10/16 02:35:29;;;;;;;;;;;;;;;15.13;71.83;100522.16;5068992;28;19908;-33
2022/10/16 02:37:54;;;;;;;;;;;;;;;15.11;71.81;100508.94;5054079;28;19919;-33
2022/10/16 02:40:20;;;;;;;;;;;;;;;15.11;71.50;100524.03;5053978;28;19978;-33
2022/10/16 02:42:49;;;;;;;;;;;;;;;15.10;71.71;100522.25;5053048;28;19916;-33
2022/10/16 02:45:14;;;;;;;;;;;;;;;15.08;71.96;100514.38;5065495;28;20456;-33
2022/10/16 02:47:39;;;;;;;;;;;;;;;15.07;72.16;100522.38;5070522;28;19912;-33
2022/10/16 02:50:05;;;;;;;;;;;;;;;15.06;72.37;100536.56;5069944;28;19912;-33
2022/10/16 02:52:30;;;;;;;;;;;;;;;15.05;72.32;100526.84;5066905;28;19919;-33
2022/10/16 02:54:55;;;;;;;;;;;;;;;15.05;72.45;100525.06;5067657;28;19917;-33
2022/10/16 02:57:20;;;;;;;;;;;;;;;15.03;72.46;100521.59;5066048;28;19978;-33
2022/10/16 02:59:46;;;;;;;;;;;;;;;15.03;72.27;100518.06;5064120;28;19917;-33
2022/10/16 03:02:11;;;;;;;;;;;;;;;15.01;72.05;100529.59;5072286;28;19919;-34
2022/10/16 03:04:36;;;;;;;;;;;;;;;15.01;71.48;100539.38;5068489;28;19966;-33
2022/10/16 03:07:02;;;;;;;;;;;;;;;15.00;71.18;100527.88;5070819;28;19956;-33
2022/10/16 03:09:27;;;;;;;;;;;;;;;14.99;71.00;100543.84;5046478;28;19919;-33
2022/10/16 03:11:52;;;;;;;;;;;;;;;14.99;71.05;100546.50;5072818;28;20386;-33
2022/10/16 03:14:17;;;;;;;;;;;;;;;14.96;70.90;100534.19;5069038;28;19923;-33
2022/10/16 03:16:43;;;;;;;;;;;;;;;14.94;70.68;100541.31;5071762;28;19912;-33
2022/10/16 03:19:08;;;;;;;;;;;;;;;14.95;70.65;100548.38;5071444;28;19912;-33
2022/10/16 03:21:33;;;;;;;;;;;;;;;14.93;70.54;100539.59;5071087;28;19945;-33
2022/10/16 03:23:58;;;;;;;;;;;;;;;14.93;70.52;100542.25;5070160;28;19916;-33
2022/10/16 03:26:23;;;;;;;;;;;;;;;14.93;70.34;100547.53;5048367;28;19972;-33
2022/10/16 03:28:49;;;;;;;;;;;;;;;14.91;70.31;100543.19;5063277;28;19913;-33
2022/10/16 03:31:14;;;;;;;;;;;;;;;14.91;70.24;100545.84;5052299;28;19915;-33
2022/10/16 03:33:39;;;;;;;;;;;;;;;14.88;70.24;100533.53;5035835;28;19909;-33
2022/10/16 03:36:04;;;;;;;;;;;;;;;14.88;70.00;100533.53;5062157;28;20285;-33
2022/10/16 03:38:30;;;;;;;;;;;;;;;14.85;70.06;100529.19;5070904;28;20413;-33
2022/10/16 03:40:55;;;;;;;;;;;;;;;14.85;69.87;100525.66;5071744;28;20391;-33
2022/10/16 03:43:20;;;;;;;;;;;;;;;14.83;70.01;100520.41;5069904;28;19938;-33
2022/10/16 03:45:45;;;;;;;;;;;;;;;14.82;69.92;100517.78;5071242;28;19943;-33
2022/10/16 03:48:10;;;;;;;;;;;;;;;14.80;69.99;100524.94;5061889;28;20321;-33
2022/10/16 03:50:36;;;;;;;;;;;;;;;14.79;69.99;100533.78;5051871;28;19927;-32
2022/10/16 03:53:01;;;;;;;;;;;;;;;14.77;70.16;100527.66;5070686;28;19995;-33
2022/10/16 03:55:26;;;;;;;;;;;;;;;14.74;70.14;100521.50;5071610;28;19995;-32
2022/10/16 03:57:51;;;;;;;;;;;;;;;14.74;70.08;100536.56;5052148;28;19912;-33
2022/10/16 04:00:17;;;;;;;;;;;;;;;14.72;70.25;100533.97;5048115;28;19946;-33
2022/10/16 04:02:42;;;;;;;;;;;;;;;14.70;70.41;100532.25;5072424;28;19908;-33
2022/10/16 04:05:07;;;;;;;;;;;;;;;14.69;70.47;100542.00;5053756;28;19912;-32
2022/10/16 04:07:32;;;;;;;;;;;;;;;14.68;70.41;100542.94;5061023;28;19912;-33
2022/10/16 04:09:58;;;;;;;;;;;;;;;14.67;70.56;100548.28;5050590;28;19916;-33
2022/10/16 04:12:24;;;;;;;;;;;;;;;14.65;70.33;100548.31;5066104;28;19908;-33
2022/10/16 04:14:49;;;;;;;;;;;;;;;14.63;70.12;100566.94;5070952;28;19931;-33
2022/10/16 04:17:14;;;;;;;;;;;;;;;14.61;70.31;100574.06;5071443;28;19935;-33
2022/10/16 04:19:40;;;;;;;;;;;;;;;14.61;70.68;100557.28;5068065;28;20136;-33
2022/10/16 04:22:05;;;;;;;;;;;;;;;14.59;70.43;100561.75;5069853;28;19908;-33
2022/10/16 04:24:30;;;;;;;;;;;;;;;14.58;70.43;100563.53;5070116;28;19916;-33
2022/10/16 04:26:55;;;;;;;;;;;;;;;14.56;70.42;100554.75;5072401;28;19912;-33
2022/10/16 04:29:21;;;;;;;;;;;;;;;14.56;70.30;100556.53;5070212;28;20615;-33
2022/10/16 04:31:46;;;;;;;;;;;;;;;14.55;70.36;100574.25;5069797;28;19920;-33
2022/10/16 04:34:11;;;;;;;;;;;;;;;14.54;70.28;100579.59;5069459;28;19954;-32
2022/10/16 04:36:36;;;;;;;;;;;;;;;14.53;70.04;100586.66;5067150;28;20047;-32
2022/10/16 04:39:02;;;;;;;;;;;;;;;14.53;70.02;100601.72;5070819;28;19963;-33
2022/10/16 04:41:27;;;;;;;;;;;;;;;14.50;70.23;100598.25;5068974;28;19916;-33
2022/10/16 04:43:52;;;;;;;;;;;;;;;14.48;70.20;100597.41;5055477;28;19908;-32
2022/10/16 04:46:17;;;;;;;;;;;;;;;14.48;70.24;100600.06;5072008;28;19924;-33
2022/10/16 04:48:42;;;;;;;;;;;;;;;14.46;70.20;100596.59;5070154;28;19912;-33
2022/10/16 04:51:08;;;;;;;;;;;;;;;14.45;70.18;100594.84;5068430;28;19912;-33
2022/10/16 04:53:34;;;;;;;;;;;;;;;14.44;70.08;100601.06;5068566;28;19916;-33
2022/10/16 04:55:59;;;;;;;;;;;;;;;14.42;69.94;100597.59;5054041;28;20368;-33
2022/10/16 04:58:24;;;;;;;;;;;;;;;14.41;70.05;100598.50;5061632;28;19951;-33
2022/10/16 05:00:49;;;;;;;;;;;;;;;14.40;69.91;100603.84;5047409;28;19921;-33
2022/10/16 05:03:14;;;;;;;;;;;;;;;14.37;70.03;100613.63;5065478;28;19958;-33
2022/10/16 05:05:44;;;;;;;;;;;;;;;14.38;70.06;100609.19;5047975;28;19924;-33
2022/10/16 05:08:09;;;;;;;;;;;;;;;14.36;70.01;100605.69;5070726;28;19913;-33
2022/10/16 05:10:34;;;;;;;;;;;;;;;14.35;69.87;100611.91;5067615;28;19923;-33
2022/10/16 05:13:00;;;;;;;;;;;;;;;14.34;69.91;100613.69;5063422;28;20323;-33
2022/10/16 05:15:25;;;;;;;;;;;;;;;14.33;70.00;100616.38;5059050;28;19912;-32
2022/10/16 05:17:53;;;;;;;;;;;;;;;14.31;69.87;100612.91;5065636;28;19916;-33
2022/10/16 05:20:19;;;;;;;;;;;;;;;14.30;69.86;100612.03;5059327;28;20359;-33
2022/10/16 05:22:44;;;;;;;;;;;;;;;14.28;69.95;100605.03;5061810;28;19927;-33
2022/10/16 05:25:09;;;;;;;;;;;;;;;14.27;70.04;100616.56;5062006;28;19916;-33
2022/10/16 05:27:34;;;;;;;;;;;;;;;14.24;70.05;100615.72;5069298;28;19916;-33
2022/10/16 05:30:00;;;;;;;;;;;;;;;14.25;70.03;100624.56;5067549;28;19912;-33
2022/10/16 05:32:25;;;;;;;;;;;;;;;14.23;70.00;100631.66;5046767;28;20876;-33
2022/10/16 05:34:50;;;;;;;;;;;;;;;14.23;70.05;100631.66;5070874;28;19912;-33
2022/10/16 05:37:15;;;;;;;;;;;;;;;14.21;70.10;100628.19;5064228;28;20643;-33
2022/10/16 05:39:41;;;;;;;;;;;;;;;14.20;70.23;100637.91;5069225;28;20379;-33
2022/10/16 05:42:06;;;;;;;;;;;;;;;14.19;69.94;100632.66;5069011;28;19922;-33
2022/10/16 05:44:31;;;;;;;;;;;;;;;14.18;70.06;100634.44;5069559;28;19912;-33
2022/10/16 05:46:56;;;;;;;;;;;;;;;14.17;70.09;100638.00;5073679;28;19996;-33
2022/10/16 05:49:22;;;;;;;;;;;;;;;14.17;70.21;100638.00;5071200;28;19920;-33
2022/10/16 05:51:47;;;;;;;;;;;;;;;14.16;70.29;100640.69;5071975;28;19919;-33
2022/10/16 05:54:12;;;;;;;;;;;;;;;14.15;70.28;100644.25;5073368;28;19912;-33
2022/10/16 05:56:37;;;;;;;;;;;;;;;14.14;70.26;100648.66;5071334;28;19912;-33
2022/10/16 05:59:03;;;;;;;;;;;;;;;14.14;70.23;100642.50;5071038;28;19912;-33
2022/10/16 06:01:28;;;;;;;;;;;;;;;14.13;70.50;100624.88;5071978;28;20378;-33
2022/10/16 06:03:53;;;;;;;;;;;;;;;14.11;70.32;100627.56;5072618;28;19919;-33
2022/10/16 06:06:20;;;;;;;;;;;;;;;14.11;70.44;100633.72;5074350;28;19928;-33
2022/10/16 06:08:46;;;;;;;;;;;;;;;14.12;71.03;100642.53;5070630;28;19927;-33
2022/10/16 06:11:12;;;;;;;;;;;;;;;14.13;71.65;100638.97;5069249;28;19920;-33
2022/10/16 06:13:38;;;;;;;;;;;;;;;14.12;72.19;100655.81;5068027;28;19920;-33
2022/10/16 06:16:04;;;;;;;;;;;;;;;14.13;71.85;100657.53;5073926;28;19920;-33
2022/10/16 06:18:29;;;;;;;;;;;;;;;14.14;71.80;100647.81;5073487;28;19912;-33
2022/10/16 06:20:55;;;;;;;;;;;;;;;14.14;72.02;100648.66;5055285;28;19959;-33
2022/10/16 06:23:20;;;;;;;;;;;;;;;14.15;72.05;100655.75;5069934;28;19912;-33
2022/10/16 06:25:45;;;;;;;;;;;;;;;14.17;73.09;100663.66;5072869;28;19920;-32
2022/10/16 06:28:11;;;;;;;;;;;;;;;14.17;73.55;100664.50;5070507;28;20011;-33
2022/10/16 06:30:36;;;;;;;;;;;;;;;14.19;73.38;100673.31;5072787;28;20286;-33
2022/10/16 06:33:01;;;;;;;;;;;;;;;14.21;72.86;100670.63;5067684;28;20294;-33
2022/10/16 06:35:27;;;;;;;;;;;;;;;14.23;72.90;100669.69;5072739;28;19920;-33
2022/10/16 06:37:52;;;;;;;;;;;;;;;14.26;72.78;100665.19;5065869;28;19908;-33
2022/10/16 06:40:18;;;;;;;;;;;;;;;14.28;72.68;100660.72;5069015;28;19981;-33
2022/10/16 06:42:43;;;;;;;;;;;;;;;14.30;72.42;100661.59;5070815;28;19947;-33
2022/10/16 06:45:09;;;;;;;;;;;;;;;14.32;72.29;100657.09;5071194;28;19963;-33
2022/10/16 06:47:34;;;;;;;;;;;;;;;14.32;71.93;100646.47;5064388;28;19912;-33
2022/10/16 06:49:59;;;;;;;;;;;;;;;14.34;71.74;100636.72;5067115;28;20374;-33
2022/10/16 06:52:24;;;;;;;;;;;;;;;14.35;71.75;100635.78;5071305;28;19912;-33
2022/10/16 06:54:50;;;;;;;;;;;;;;;14.35;71.65;100642.00;5051697;28;19919;-33
2022/10/16 06:57:15;;;;;;;;;;;;;;;14.37;71.52;100634.84;5070557;28;19912;-34
2022/10/16 06:59:40;;;;;;;;;;;;;;;14.37;71.43;100628.66;5062521;28;19939;-33
2022/10/16 07:02:07;;;;;;;;;;;;;;;14.39;71.25;100626.84;5068242;28;19916;-33
2022/10/16 07:04:32;;;;;;;;;;;;;;;14.39;71.17;100632.16;5068714;28;20289;-33
2022/10/16 07:06:57;;;;;;;;;;;;;;;14.41;71.20;100653.34;5068742;28;19916;-33
2022/10/16 07:09:22;;;;;;;;;;;;;;;14.41;71.34;100680.75;5065621;28;19939;-33
2022/10/16 07:11:48;;;;;;;;;;;;;;;14.40;71.21;100702.88;5048468;28;19925;-33
2022/10/16 07:14:16;;;;;;;;;;;;;;;14.43;71.29;100725.78;5069449;28;19939;-33
2022/10/16 07:16:41;;;;;;;;;;;;;;;14.43;71.18;100742.59;5061929;28;19920;-34
2022/10/16 07:19:07;;;;;;;;;;;;;;;14.44;71.15;100736.38;5066532;28;19920;-33
2022/10/16 07:21:35;;;;;;;;;;;;;;;14.46;71.10;100734.56;5035136;28;20421;-33
2022/10/16 07:24:03;;;;;;;;;;;;;;;14.48;70.95;100745.16;5067785;28;19912;-32
2022/10/16 07:26:30;;;;;;;;;;;;;;;14.49;70.98;100737.16;5063006;28;19916;-33
2022/10/16 07:28:55;;;;;;;;;;;;;;;14.50;71.03;100736.25;5052654;28;19920;-33
2022/10/16 07:31:21;;;;;;;;;;;;;;;14.50;70.90;100736.25;5066574;28;19919;-33
2022/10/16 07:33:47;;;;;;;;;;;;;;;14.53;70.91;100745.03;5073480;28;19912;-33
2022/10/16 07:36:13;;;;;;;;;;;;;;;14.54;70.66;100760.06;5068769;28;19916;-33
2022/10/16 07:38:38;;;;;;;;;;;;;;;14.54;70.80;100763.56;5069560;28;20402;-33
2022/10/16 07:41:05;;;;;;;;;;;;;;;14.57;70.77;100767.94;5070426;28;20016;-33
2022/10/16 07:43:30;;;;;;;;;;;;;;;14.58;70.86;100761.72;5071091;28;20492;-33
2022/10/16 07:45:55;;;;;;;;;;;;;;;14.60;71.03;100765.19;5064644;28;20003;-33
2022/10/16 07:48:21;;;;;;;;;;;;;;;14.63;72.89;100770.44;5065695;28;19912;-33
2022/10/16 07:50:47;;;;;;;;;;;;;;;14.62;73.43;100771.34;5071324;28;20260;-33
2022/10/16 07:53:15;;;;;;;;;;;;;;;14.65;74.60;100773.94;5068655;28;19938;-32
2022/10/16 07:55:40;;;;;;;;;;;;;;;14.67;74.20;100772.09;5072703;28;20462;-32
2022/10/16 07:58:06;;;;;;;;;;;;;;;14.73;74.40;100774.63;5065413;28;19916;-33
2022/10/16 08:00:31;;;;;;;;;;;;;;;14.78;74.23;100760.38;5069762;28;19966;-33
2022/10/16 08:02:59;;;;;;;;;;;;;;;14.84;74.12;100763.75;5054402;28;19934;-32
2022/10/16 08:05:25;;;;;;;;;;;;;;;14.88;73.67;100772.53;5069450;28;19920;-32
2022/10/16 08:07:51;;;;;;;;;;;;;;;14.94;74.10;100780.31;5063816;28;19912;-33
2022/10/16 08:10:16;;;;;;;;;;;;;;;14.97;73.63;100777.59;5063313;28;19985;-33
2022/10/16 08:12:42;;;;;;;;;;;;;;;15.01;73.91;100792.53;5066826;28;19966;-32
2022/10/16 08:15:07;;;;;;;;;;;;;;;15.08;74.54;100789.72;5065957;28;19913;-32
2022/10/16 08:17:32;;;;;;;;;;;;;;;15.10;74.04;100806.47;5065261;28;19927;-33
2022/10/16 08:19:58;;;;;;;;;;;;;;;15.14;74.17;100816.13;5067033;28;19912;-33
2022/10/16 08:22:24;;;;;;;;;;;;;;;15.19;74.20;100821.31;5051409;28;19913;-32
2022/10/16 08:24:50;;;;;;;;;;;;;;;15.22;73.84;100829.19;5069778;28;19946;-32
2022/10/16 08:27:15;;;;;;;;;;;;;;;15.25;73.79;100816.69;5048061;28;19912;-32
2022/10/16 08:29:41;;;;;;;;;;;;;;;15.30;73.69;100816.56;5063942;28;19913;-32
2022/10/16 08:32:06;;;;;;;;;;;;;;;15.34;74.03;100812.06;5061499;28;20318;-32
2022/10/16 08:34:31;;;;;;;;;;;;;;;15.37;73.70;100801.34;5044822;28;19909;-32
2022/10/16 08:36:57;;;;;;;;;;;;;;;15.40;73.46;100790.63;5067912;28;20397;-32
2022/10/16 08:39:22;;;;;;;;;;;;;;;15.44;73.49;100808.22;5061164;28;19919;-32
2022/10/16 08:42:17;;;;;;;;;;;;;;;15.49;74.70;100822.28;5069399;28;19913;-32
2022/10/16 08:44:54;;;;;;;;;;;;;;;15.52;74.27;100832.84;5046646;28;19916;-32
2022/10/16 08:47:24;;;;;;;;;;;;;;;15.56;74.19;100825.63;5066868;28;19912;-32
2022/10/16 08:50:08;;;;;;;;;;;;;;;15.59;73.77;100814.03;5052031;28;19919;-32
2022/10/16 08:52:38;;;;;;;;;;;;;;;15.65;73.96;100829.84;5071486;28;19935;-50
2022/10/16 08:55:04;;;;;;;;;;;;;;;15.67;73.02;100816.50;5033756;28;20333;-33
2022/10/16 08:57:32;;;;;;;;;;;;;;;15.69;72.69;100812.88;5068780;28;20424;-32
2022/10/16 09:00:00;;;;;;;;;;;;;;;15.73;72.38;100813.66;5048605;28;19982;-33
2022/10/16 09:02:31;;;;;;;;;;;;;;;15.76;72.81;100819.78;5069152;28;19919;-33
2022/10/16 09:04:57;;;;;;;;;;;;;;;15.80;72.88;100831.19;5062010;28;19920;-33
2022/10/16 09:07:48;;;;;;;;;;;;;;;15.84;72.59;100826.66;5066828;28;20018;-33
2022/10/16 09:10:20;;;;;;;;;;;;;;;15.88;72.89;100828.31;5061292;28;19913;-33
2022/10/16 09:12:53;;;;;;;;;;;;;;;15.90;72.17;100839.75;5062527;28;19923;-33
2022/10/16 09:15:22;;;;;;;;;;;;;;;15.94;72.25;100846.72;5048823;28;19947;-33
2022/10/16 09:17:50;;;;;;;;;;;;;;;15.99;72.67;100857.28;5069910;28;19913;-33
2022/10/16 09:20:25;;;;;;;;;;;;;;;16.02;72.95;100844.78;5064299;28;20058;-33
2022/10/16 09:22:51;;;;;;;;;;;;;;;16.07;73.62;100849.09;5068562;28;20394;-33
2022/10/16 09:25:18;;;;;;;;;;;;;;;16.12;73.34;100848.03;5030464;28;20446;-32
2022/10/16 09:27:44;;;;;;;;;;;;;;;16.17;73.42;100850.53;5048134;28;19928;-33
2022/10/16 09:30:17;;;;;;;;;;;;;;;16.22;74.04;100843.31;5066349;28;19919;-32
2022/10/16 09:32:43;;;;;;;;;;;;;;;16.28;74.17;100853.75;5068861;28;19947;-32
2022/10/16 09:35:13;;;;;;;;;;;;;;;16.33;74.88;100866.94;5068839;28;20371;-32
2022/10/16 09:37:38;;;;;;;;;;;;;;;16.39;74.61;100871.19;5042277;28;19912;-33
2022/10/16 09:40:04;;;;;;;2.88;1.10;;;;;;;16.49;75.35;100866.44;5065905;28;19916;-32
2022/10/16 09:42:32;;;;;;;1.52;1.00;;;;;;;16.50;74.95;100868.19;5032465;28;20047;-32
2022/10/16 09:44:58;;;;;;;2.47;1.10;;;;;;;16.55;74.92;100864.47;5067387;28;20035;-32
2022/10/16 09:47:26;;;;;;;1.50;1.00;;;;;;;16.59;74.17;100864.38;5051840;28;20025;-32
2022/10/16 09:50:01;;;;;;;3.10;1.10;;;;;;;16.62;73.51;100857.19;5066300;28;20099;-32
2022/10/16 09:52:27;;;;;;;1.60;0.93;;;;;;;16.67;73.71;100862.34;5065277;28;20082;-32
2022/10/16 09:54:58;;;;;;;1.60;1.00;;;;;;;16.73;73.93;100875.47;5046481;28;20017;-32
2022/10/16 09:57:24;;;;;;;2.28;1.00;;;;;;;16.75;73.20;100872.75;5063199;28;20042;-32
2022/10/16 09:59:55;;;;;;;1.83;1.00;;;;;;;16.78;73.17;100878.84;5068745;28;20032;-33
2022/10/16 10:02:41;;;;;;;1.90;1.00;;;;;;;16.86;73.59;100891.06;5066124;28;20052;-32
2022/10/16 10:05:19;;;;;;;1.35;0.90;;;;;;;16.88;73.17;100892.75;5067138;28;20487;-32
2022/10/16 10:07:46;;;;;;;2.22;0.95;;;;;;;16.94;73.56;100899.66;5031013;28;20468;-32
2022/10/16 10:10:26;;;;;;;2.17;0.90;;;;;;;16.99;73.42;100899.53;5052438;28;20032;-33
2022/10/16 10:12:53;;;;;;;2.75;0.82;;;;;;;17.02;73.00;100902.09;5047269;28;20024;-32
2022/10/16 10:15:23;;;;;;;1.17;0.80;;;;;;;17.07;73.12;100904.66;5069156;28;20028;-32
2022/10/16 10:17:53;;;;;;;1.60;0.95;;;;;;;17.11;73.17;100912.47;5065001;28;20033;-32
2022/10/16 10:20:25;;;;;;;1.40;0.95;;;;;;;17.15;73.01;100903.47;5067070;28;20028;-32
2022/10/16 10:22:52;;;;;;;1.40;0.80;;;;;;;17.19;72.75;100904.22;5059876;28;20029;-32
2022/10/16 10:25:37;;;;;;;1.27;0.75;;;;;;;17.24;73.00;100914.75;5060926;28;20056;-32
2022/10/16 10:28:13;;;;;;;1.40;0.90;;;;;;;17.28;72.91;100913.72;5054410;28;20035;-32
2022/10/16 10:31:07;;;;;;;1.30;0.80;;;;;;;17.31;72.80;100913.63;5069657;28;20357;-32
2022/10/16 10:33:59;;;;;;;1.67;0.80;;;;;;;17.36;72.28;100926.78;5058176;28;20031;-32
2022/10/16 10:36:31;;;;;;;1.30;0.90;;;;;;;17.40;72.55;100923.09;5079965;28;20028;-32
2022/10/16 10:38:56;;;;;;;2.13;1.00;;;;;;;17.41;72.07;100915.03;5075090;28;20496;-32
2022/10/16 10:41:50;;;;;;;1.33;0.70;;;;;;;17.46;71.77;100919.34;5073262;28;20078;-32
2022/10/16 10:44:39;;;;;;;1.33;0.70;;;;;;;17.49;71.62;100925.44;5065045;28;20021;-32
2022/10/16 10:47:29;;;;;;;1.40;0.80;;;;;;;17.53;71.42;100929.75;5069780;28;20056;-33
2022/10/16 10:50:22;;;;;;;1.48;0.90;;;;;;;17.57;71.62;100923.38;5044952;28;20028;-32
2022/10/16 10:52:51;;;;;;;1.33;0.80;;;;;;;17.59;71.48;100930.44;5067220;28;20041;-32
2022/10/16 10:55:42;;;;;;;1.30;0.80;;;;;;;17.62;71.33;100928.56;5056172;28;20029;-32
2022/10/16 10:58:22;;;;;;;1.40;0.80;;;;;;;17.66;71.53;100927.53;5068847;28;21518;-32
2022/10/16 11:00:57;;;;;;;2.38;0.95;;;;;;;17.67;70.85;100917.72;5069712;28;20549;-32
2022/10/16 11:03:31;;;;;;;1.25;0.90;;;;;;;17.71;71.05;100927.38;5050550;28;20036;-32
2022/10/16 11:06:00;;;;;;;1.30;0.80;;;;;;;17.72;71.17;100922.91;5072439;28;20033;-32
2022/10/16 11:08:36;;;;;;;2.38;0.88;;;;;;;17.74;71.26;100927.25;5046774;28;20077;-32
2022/10/16 11:11:25;;;;;;;1.42;0.90;;;;;;;17.75;71.43;100923.69;5068007;28;20414;-32
2022/10/16 11:13:51;;;;;;;;;;;;;;;17.80;71.35;100924.38;5053979;28;20086;-32
2022/10/16 11:16:30;;;;;;;1.60;1.10;;;;;;;17.82;71.32;100925.22;5065740;28;19999;-33
2022/10/16 11:19:14;;;;;;;2.20;1.00;;;;;;;17.85;71.15;100928.69;5051804;28;20047;-32
2022/10/16 11:21:48;;;;;;;1.60;0.80;;;;;;;17.88;71.23;100932.13;5068035;28;20158;-33
2022/10/16 11:24:23;;;;;;;2.85;0.85;;;;;;;17.91;71.74;100928.47;5066057;28;20032;-32
2022/10/16 11:26:50;;;;;;;1.48;0.88;;;;;;;17.93;71.86;100931.94;5050471;28;20036;-32
2022/10/16 11:29:22;;;;;;;1.40;1.00;;;;;;;17.96;71.70;100937.16;5068827;28;20020;-32
2022/10/16 11:31:51;;;;;;;1.40;0.80;;;;;;;18.01;71.68;100935.19;5069855;28;20028;-32
2022/10/16 11:34:34;;;;;;;1.52;0.90;;;;;;;18.04;71.44;100939.56;5037267;28;20035;-31
2022/10/16 11:37:12;;;;;;;1.40;0.80;;;;;;;18.08;70.97;100943.88;5072733;28;20111;-32
2022/10/16 11:39:38;;;;;;;1.30;0.82;;;;;;;18.12;70.82;100941.97;5070116;28;20032;-32
2022/10/16 11:42:19;;;;;;;2.08;0.75;;;;;;;18.18;71.78;100941.75;5070196;28;20025;-32
2022/10/16 11:44:56;;;;;;;1.60;1.00;;;;;;;18.20;71.57;100935.44;5061512;28;20032;-33
2022/10/16 11:47:34;;;;;;;1.50;1.00;;;;;;;18.25;72.40;100937.94;5052352;28;20033;-32
2022/10/16 11:50:17;;;;;;;1.70;1.00;;;;;;;18.32;72.45;100939.47;5061698;28;20066;-32
2022/10/16 11:52:56;;;;;;;2.30;0.88;;;;;;;18.38;71.91;100937.47;5071250;28;20020;-32
2022/10/16 11:55:26;;;;;;;1.30;0.90;;;;;;;18.45;71.35;100947.00;5067605;28;20032;-33
2022/10/16 11:57:54;;;;;;;2.03;0.80;;;;;;;18.50;71.10;100947.69;5061464;28;20020;-33
2022/10/16 12:00:35;;;;;;;1.48;0.90;;;;;;;18.53;70.68;100939.56;5067101;28;20103;-32
2022/10/16 12:03:11;;;;;;;1.50;0.70;;;;;;;18.56;70.50;100942.13;5049958;28;20028;-32
2022/10/16 12:06:02;;;;;;;1.30;0.90;;;;;;;18.63;70.60;100941.84;5063545;28;20016;-33
2022/10/16 12:08:28;;;;;;;1.33;0.82;;;;;;;18.68;70.16;100940.75;5049549;28;20407;-33
2022/10/16 12:10:55;;;;;;;1.75;0.82;;;;;;;18.74;70.28;100946.81;5066546;28;20050;-33
2022/10/16 12:13:38;;;;;;;1.27;0.80;;;;;;;18.79;70.00;100943.03;5044828;28;20028;-32
2022/10/16 12:16:12;;;;;;;1.63;0.90;;;;;;;18.83;70.19;100941.97;5047134;28;20387;-32
2022/10/16 12:18:44;;;;;;;1.50;0.88;;;;;;;18.90;70.25;100941.72;5065316;28;20078;-32
2022/10/16 12:21:13;;;;;;;1.88;0.90;;;;;;;18.95;69.95;100937.06;5047700;28;20032;-33
2022/10/16 12:23:48;;;;;;;;;;;;;;;18.99;69.32;100938.69;5070299;28;19951;-32
2022/10/16 12:26:14;;;;;;;;;;;;;;;19.04;69.34;100936.69;5050653;28;19966;-32
2022/10/16 12:28:40;;;;;;;;;;;;;;;19.08;68.83;100932.97;5065794;28;19923;-32